sensor_id;sensor_type;location;lat;lon;timestamp;P1;durP1;ratioP1;P2;durP2;ratioP2
13090;SDS011;6611;52.604;13.438;2023-10-08T00:03:23;2.57;;;1.30;;
13090;SDS011;6611;52.604;13.438;2023-10-08T00:08:29;3.17;;;1.23;;
13090;SDS011;6611;52.604;13.438;2023-10-08T00:13:31;3.40;;;1.03;;
13090;SDS011;6611;52.604;13.438;2023-10-08T00:18:37;2.57;;;1.20;;
13090;SDS011;6611;52.604;13.438;2023-10-08T00:23:42;2.73;;;1.33;;
13090;SDS011;6611;52.604;13.438;2023-10-08T00:28:49;4.07;;;1.30;;
13090;SDS011;6611;52.604;13.438;2023-10-08T00:33:53;3.43;;;1.30;;
13090;SDS011;6611;52.604;13.438;2023-10-08T00:38:56;4.77;;;1.50;;
13090;SDS011;6611;52.604;13.438;2023-10-08T00:44:00;7.37;;;1.30;;
13090;SDS011;6611;52.604;13.438;2023-10-08T00:49:07;2.57;;;1.20;;
13090;SDS011;6611;52.604;13.438;2023-10-08T00:54:24;4.07;;;1.13;;
13090;SDS011;6611;52.604;13.438;2023-10-08T00:59:28;4.07;;;1.30;;
13090;SDS011;6611;52.604;13.438;2023-10-08T01:04:35;2.13;;;1.17;;
13090;SDS011;6611;52.604;13.438;2023-10-08T01:09:38;4.43;;;1.30;;
13090;SDS011;6611;52.604;13.438;2023-10-08T01:14:42;5.00;;;1.30;;
13090;SDS011;6611;52.604;13.438;2023-10-08T01:19:47;4.20;;;1.53;;
13090;SDS011;6611;52.604;13.438;2023-10-08T01:24:56;3.70;;;1.37;;
13090;SDS011;6611;52.604;13.438;2023-10-08T01:30:01;3.17;;;1.30;;
13090;SDS011;6611;52.604;13.438;2023-10-08T01:35:12;6.67;;;1.40;;
13090;SDS011;6611;52.604;13.438;2023-10-08T01:40:24;6.40;;;1.60;;
13090;SDS011;6611;52.604;13.438;2023-10-08T01:45:26;3.77;;;1.40;;
13090;SDS011;6611;52.604;13.438;2023-10-08T01:50:30;3.33;;;1.20;;
13090;SDS011;6611;52.604;13.438;2023-10-08T01:55:36;3.03;;;1.30;;
13090;SDS011;6611;52.604;13.438;2023-10-08T02:00:49;2.73;;;1.40;;
13090;SDS011;6611;52.604;13.438;2023-10-08T02:05:52;2.67;;;1.30;;
13090;SDS011;6611;52.604;13.438;2023-10-08T02:11:00;2.63;;;1.50;;
13090;SDS011;6611;52.604;13.438;2023-10-08T02:16:02;5.07;;;1.50;;
13090;SDS011;6611;52.604;13.438;2023-10-08T02:21:04;6.83;;;1.90;;
13090;SDS011;6611;52.604;13.438;2023-10-08T02:26:07;6.57;;;1.83;;
13090;SDS011;6611;52.604;13.438;2023-10-08T02:31:09;5.93;;;2.10;;
13090;SDS011;6611;52.604;13.438;2023-10-08T02:36:11;8.63;;;2.57;;
13090;SDS011;6611;52.604;13.438;2023-10-08T02:41:16;8.13;;;2.00;;
13090;SDS011;6611;52.604;13.438;2023-10-08T02:46:18;4.73;;;2.17;;
13090;SDS011;6611;52.604;13.438;2023-10-08T02:51:20;10.27;;;2.20;;
13090;SDS011;6611;52.604;13.438;2023-10-08T02:56:23;4.30;;;2.07;;
13090;SDS011;6611;52.604;13.438;2023-10-08T03:01:24;5.37;;;2.20;;
13090;SDS011;6611;52.604;13.438;2023-10-08T03:06:26;3.80;;;1.80;;
13090;SDS011;6611;52.604;13.438;2023-10-08T03:11:29;4.77;;;1.63;;
13090;SDS011;6611;52.604;13.438;2023-10-08T03:16:31;5.37;;;2.03;;
13090;SDS011;6611;52.604;13.438;2023-10-08T03:21:35;2.97;;;1.77;;
13090;SDS011;6611;52.604;13.438;2023-10-08T03:26:52;5.40;;;1.90;;
13090;SDS011;6611;52.604;13.438;2023-10-08T03:31:55;4.80;;;2.10;;
13090;SDS011;6611;52.604;13.438;2023-10-08T03:36:58;4.57;;;2.30;;
13090;SDS011;6611;52.604;13.438;2023-10-08T03:42:07;4.60;;;2.00;;
13090;SDS011;6611;52.604;13.438;2023-10-08T03:47:12;4.13;;;1.90;;
13090;SDS011;6611;52.604;13.438;2023-10-08T03:52:14;4.60;;;2.03;;
13090;SDS011;6611;52.604;13.438;2023-10-08T03:57:17;4.03;;;2.00;;
13090;SDS011;6611;52.604;13.438;2023-10-08T04:02:26;6.63;;;1.93;;
13090;SDS011;6611;52.604;13.438;2023-10-08T04:07:40;4.83;;;2.00;;
13090;SDS011;6611;52.604;13.438;2023-10-08T04:13:03;4.67;;;1.93;;
13090;SDS011;6611;52.604;13.438;2023-10-08T04:18:09;5.60;;;1.90;;
13090;SDS011;6611;52.604;13.438;2023-10-08T04:23:11;5.90;;;1.87;;
13090;SDS011;6611;52.604;13.438;2023-10-08T04:28:20;3.30;;;1.93;;
13090;SDS011;6611;52.604;13.438;2023-10-08T04:33:22;4.67;;;2.10;;
13090;SDS011;6611;52.604;13.438;2023-10-08T04:38:24;5.90;;;2.30;;
13090;SDS011;6611;52.604;13.438;2023-10-08T04:43:27;5.20;;;2.53;;
13090;SDS011;6611;52.604;13.438;2023-10-08T04:48:30;6.07;;;2.07;;
13090;SDS011;6611;52.604;13.438;2023-10-08T04:53:33;4.30;;;1.70;;
13090;SDS011;6611;52.604;13.438;2023-10-08T04:58:38;4.53;;;2.10;;
13090;SDS011;6611;52.604;13.438;2023-10-08T05:03:41;3.63;;;2.13;;
13090;SDS011;6611;52.604;13.438;2023-10-08T05:08:54;3.93;;;1.93;;
13090;SDS011;6611;52.604;13.438;2023-10-08T05:14:00;6.30;;;1.93;;
13090;SDS011;6611;52.604;13.438;2023-10-08T05:19:16;4.97;;;2.13;;
13090;SDS011;6611;52.604;13.438;2023-10-08T05:24:47;5.00;;;1.90;;
13090;SDS011;6611;52.604;13.438;2023-10-08T05:30:09;3.90;;;1.83;;
13090;SDS011;6611;52.604;13.438;2023-10-08T05:35:15;3.50;;;1.80;;
13090;SDS011;6611;52.604;13.438;2023-10-08T05:40:49;8.00;;;2.00;;
13090;SDS011;6611;52.604;13.438;2023-10-08T05:46:18;5.67;;;2.33;;
13090;SDS011;6611;52.604;13.438;2023-10-08T05:51:40;3.70;;;2.20;;
13090;SDS011;6611;52.604;13.438;2023-10-08T05:56:57;2.93;;;2.10;;
13090;SDS011;6611;52.604;13.438;2023-10-08T06:02:16;4.30;;;2.30;;
13090;SDS011;6611;52.604;13.438;2023-10-08T06:07:28;4.73;;;3.07;;
13090;SDS011;6611;52.604;13.438;2023-10-08T06:12:47;5.13;;;2.37;;
13090;SDS011;6611;52.604;13.438;2023-10-08T06:18:03;4.40;;;2.60;;
13090;SDS011;6611;52.604;13.438;2023-10-08T06:23:05;8.43;;;2.60;;
13090;SDS011;6611;52.604;13.438;2023-10-08T06:28:08;6.50;;;2.60;;
13090;SDS011;6611;52.604;13.438;2023-10-08T06:33:11;4.70;;;2.50;;
13090;SDS011;6611;52.604;13.438;2023-10-08T06:38:13;3.20;;;2.23;;
13090;SDS011;6611;52.604;13.438;2023-10-08T06:43:18;4.70;;;2.27;;
13090;SDS011;6611;52.604;13.438;2023-10-08T06:48:25;6.00;;;2.00;;
13090;SDS011;6611;52.604;13.438;2023-10-08T06:53:29;3.87;;;1.83;;
13090;SDS011;6611;52.604;13.438;2023-10-08T06:58:31;4.90;;;1.87;;
13090;SDS011;6611;52.604;13.438;2023-10-08T07:03:35;3.23;;;1.53;;
13090;SDS011;6611;52.604;13.438;2023-10-08T07:08:38;2.87;;;1.70;;
13090;SDS011;6611;52.604;13.438;2023-10-08T07:13:41;2.77;;;1.10;;
13090;SDS011;6611;52.604;13.438;2023-10-08T07:18:44;3.23;;;1.30;;
13090;SDS011;6611;52.604;13.438;2023-10-08T07:23:51;3.47;;;1.47;;
13090;SDS011;6611;52.604;13.438;2023-10-08T07:28:57;3.97;;;1.53;;
13090;SDS011;6611;52.604;13.438;2023-10-08T07:34:00;4.23;;;1.50;;
13090;SDS011;6611;52.604;13.438;2023-10-08T07:39:15;1.87;;;1.10;;
13090;SDS011;6611;52.604;13.438;2023-10-08T07:44:33;2.47;;;1.20;;
13090;SDS011;6611;52.604;13.438;2023-10-08T07:49:38;3.30;;;1.43;;
13090;SDS011;6611;52.604;13.438;2023-10-08T07:54:39;2.00;;;1.10;;
13090;SDS011;6611;52.604;13.438;2023-10-08T07:59:42;2.37;;;1.20;;
13090;SDS011;6611;52.604;13.438;2023-10-08T08:04:50;1.70;;;0.90;;
13090;SDS011;6611;52.604;13.438;2023-10-08T08:09:52;1.17;;;0.80;;
13090;SDS011;6611;52.604;13.438;2023-10-08T08:14:59;2.67;;;1.00;;
13090;SDS011;6611;52.604;13.438;2023-10-08T08:20:05;1.77;;;0.73;;
13090;SDS011;6611;52.604;13.438;2023-10-08T08:25:17;2.53;;;0.90;;
13090;SDS011;6611;52.604;13.438;2023-10-08T08:30:33;1.10;;;0.83;;
13090;SDS011;6611;52.604;13.438;2023-10-08T08:35:38;2.53;;;0.90;;
13090;SDS011;6611;52.604;13.438;2023-10-08T08:40:39;1.77;;;1.13;;
13090;SDS011;6611;52.604;13.438;2023-10-08T08:45:41;2.67;;;1.13;;
13090;SDS011;6611;52.604;13.438;2023-10-08T08:50:45;3.73;;;0.73;;
13090;SDS011;6611;52.604;13.438;2023-10-08T08:55:49;2.83;;;0.97;;
13090;SDS011;6611;52.604;13.438;2023-10-08T09:00:52;1.40;;;0.80;;
13090;SDS011;6611;52.604;13.438;2023-10-08T09:05:57;1.23;;;0.60;;
13090;SDS011;6611;52.604;13.438;2023-10-08T09:10:59;1.43;;;0.90;;
13090;SDS011;6611;52.604;13.438;2023-10-08T09:16:03;0.93;;;0.60;;
13090;SDS011;6611;52.604;13.438;2023-10-08T09:21:11;0.97;;;0.50;;
13090;SDS011;6611;52.604;13.438;2023-10-08T09:26:16;1.97;;;0.50;;
13090;SDS011;6611;52.604;13.438;2023-10-08T09:31:18;1.23;;;0.73;;
13090;SDS011;6611;52.604;13.438;2023-10-08T09:36:27;2.57;;;0.67;;
13090;SDS011;6611;52.604;13.438;2023-10-08T09:41:33;0.93;;;0.60;;
13090;SDS011;6611;52.604;13.438;2023-10-08T09:46:36;0.77;;;0.40;;
13090;SDS011;6611;52.604;13.438;2023-10-08T09:51:42;1.43;;;0.70;;
13090;SDS011;6611;52.604;13.438;2023-10-08T09:56:45;0.80;;;0.60;;
13090;SDS011;6611;52.604;13.438;2023-10-08T10:01:47;1.63;;;0.70;;
13090;SDS011;6611;52.604;13.438;2023-10-08T10:06:52;0.70;;;0.60;;
13090;SDS011;6611;52.604;13.438;2023-10-08T10:11:54;1.60;;;0.60;;
13090;SDS011;6611;52.604;13.438;2023-10-08T10:22:25;0.73;;;0.67;;
13090;SDS011;6611;52.604;13.438;2023-10-08T10:27:29;1.80;;;0.50;;
13090;SDS011;6611;52.604;13.438;2023-10-08T10:32:31;1.30;;;0.40;;
13090;SDS011;6611;52.604;13.438;2023-10-08T10:37:35;0.40;;;0.37;;
13090;SDS011;6611;52.604;13.438;2023-10-08T10:42:46;0.60;;;0.60;;
13090;SDS011;6611;52.604;13.438;2023-10-08T10:47:53;1.37;;;0.47;;
13090;SDS011;6611;52.604;13.438;2023-10-08T10:53:12;0.60;;;0.53;;
13090;SDS011;6611;52.604;13.438;2023-10-08T10:58:14;0.77;;;0.50;;
13090;SDS011;6611;52.604;13.438;2023-10-08T11:03:16;1.20;;;0.60;;
13090;SDS011;6611;52.604;13.438;2023-10-08T11:08:19;1.60;;;0.80;;
13090;SDS011;6611;52.604;13.438;2023-10-08T11:13:23;1.40;;;0.73;;
13090;SDS011;6611;52.604;13.438;2023-10-08T11:18:28;0.70;;;0.70;;
13090;SDS011;6611;52.604;13.438;2023-10-08T11:23:32;0.70;;;0.40;;
13090;SDS011;6611;52.604;13.438;2023-10-08T11:28:36;0.97;;;0.50;;
13090;SDS011;6611;52.604;13.438;2023-10-08T11:33:42;0.73;;;0.40;;
13090;SDS011;6611;52.604;13.438;2023-10-08T11:38:55;3.40;;;0.50;;
13090;SDS011;6611;52.604;13.438;2023-10-08T11:44:02;0.87;;;0.50;;
13090;SDS011;6611;52.604;13.438;2023-10-08T11:49:04;1.10;;;0.50;;
13090;SDS011;6611;52.604;13.438;2023-10-08T11:54:07;0.40;;;0.30;;
13090;SDS011;6611;52.604;13.438;2023-10-08T11:59:11;1.60;;;0.60;;
13090;SDS011;6611;52.604;13.438;2023-10-08T12:04:13;1.43;;;0.50;;
13090;SDS011;6611;52.604;13.438;2023-10-08T12:09:17;0.67;;;0.50;;
13090;SDS011;6611;52.604;13.438;2023-10-08T12:14:21;0.73;;;0.50;;
13090;SDS011;6611;52.604;13.438;2023-10-08T12:19:26;0.57;;;0.40;;
13090;SDS011;6611;52.604;13.438;2023-10-08T12:24:33;2.00;;;0.47;;
13090;SDS011;6611;52.604;13.438;2023-10-08T12:29:35;1.40;;;0.43;;
13090;SDS011;6611;52.604;13.438;2023-10-08T12:34:38;0.30;;;0.30;;
13090;SDS011;6611;52.604;13.438;2023-10-08T12:39:42;0.57;;;0.50;;
13090;SDS011;6611;52.604;13.438;2023-10-08T12:44:59;3.20;;;0.60;;
13090;SDS011;6611;52.604;13.438;2023-10-08T12:50:02;0.57;;;0.30;;
13090;SDS011;6611;52.604;13.438;2023-10-08T12:55:08;2.07;;;0.50;;
13090;SDS011;6611;52.604;13.438;2023-10-08T13:00:11;0.63;;;0.50;;
13090;SDS011;6611;52.604;13.438;2023-10-08T13:05:14;0.83;;;0.60;;
13090;SDS011;6611;52.604;13.438;2023-10-08T13:10:19;0.67;;;0.50;;
13090;SDS011;6611;52.604;13.438;2023-10-08T13:15:22;1.83;;;0.53;;
13090;SDS011;6611;52.604;13.438;2023-10-08T13:20:26;0.40;;;0.40;;
13090;SDS011;6611;52.604;13.438;2023-10-08T13:25:34;1.30;;;0.60;;
13090;SDS011;6611;52.604;13.438;2023-10-08T13:30:39;1.73;;;0.70;;
13090;SDS011;6611;52.604;13.438;2023-10-08T13:35:41;1.00;;;0.57;;
13090;SDS011;6611;52.604;13.438;2023-10-08T13:40:44;0.80;;;0.40;;
13090;SDS011;6611;52.604;13.438;2023-10-08T13:46:02;0.50;;;0.40;;
13090;SDS011;6611;52.604;13.438;2023-10-08T13:51:06;1.07;;;0.63;;
13090;SDS011;6611;52.604;13.438;2023-10-08T13:56:15;1.73;;;0.60;;
13090;SDS011;6611;52.604;13.438;2023-10-08T14:01:19;1.03;;;0.43;;
13090;SDS011;6611;52.604;13.438;2023-10-08T14:06:21;1.93;;;0.63;;
13090;SDS011;6611;52.604;13.438;2023-10-08T14:11:24;1.83;;;0.50;;
13090;SDS011;6611;52.604;13.438;2023-10-08T14:16:30;0.80;;;0.50;;
13090;SDS011;6611;52.604;13.438;2023-10-08T14:21:32;1.90;;;0.50;;
13090;SDS011;6611;52.604;13.438;2023-10-08T14:26:43;0.43;;;0.40;;
13090;SDS011;6611;52.604;13.438;2023-10-08T14:31:52;0.50;;;0.40;;
13090;SDS011;6611;52.604;13.438;2023-10-08T14:36:56;1.47;;;0.60;;
13090;SDS011;6611;52.604;13.438;2023-10-08T14:42:16;0.87;;;0.57;;
13090;SDS011;6611;52.604;13.438;2023-10-08T14:47:36;0.70;;;0.50;;
13090;SDS011;6611;52.604;13.438;2023-10-08T14:52:38;1.33;;;0.60;;
13090;SDS011;6611;52.604;13.438;2023-10-08T14:57:41;1.20;;;0.60;;
13090;SDS011;6611;52.604;13.438;2023-10-08T15:02:43;0.80;;;0.60;;
13090;SDS011;6611;52.604;13.438;2023-10-08T15:07:45;1.30;;;0.50;;
13090;SDS011;6611;52.604;13.438;2023-10-08T15:12:48;1.20;;;0.50;;
13090;SDS011;6611;52.604;13.438;2023-10-08T15:17:51;0.63;;;0.60;;
13090;SDS011;6611;52.604;13.438;2023-10-08T15:22:54;0.63;;;0.40;;
13090;SDS011;6611;52.604;13.438;2023-10-08T15:27:57;1.13;;;0.73;;
13090;SDS011;6611;52.604;13.438;2023-10-08T15:32:59;1.50;;;0.60;;
13090;SDS011;6611;52.604;13.438;2023-10-08T15:38:01;1.20;;;0.90;;
13090;SDS011;6611;52.604;13.438;2023-10-08T15:43:05;0.70;;;0.50;;
13090;SDS011;6611;52.604;13.438;2023-10-08T15:48:07;1.30;;;0.57;;
13090;SDS011;6611;52.604;13.438;2023-10-08T15:53:09;1.00;;;0.60;;
13090;SDS011;6611;52.604;13.438;2023-10-08T15:58:12;0.90;;;0.70;;
13090;SDS011;6611;52.604;13.438;2023-10-08T16:03:13;1.30;;;0.80;;
13090;SDS011;6611;52.604;13.438;2023-10-08T16:08:17;1.17;;;0.83;;
13090;SDS011;6611;52.604;13.438;2023-10-08T16:13:20;0.93;;;0.80;;
13090;SDS011;6611;52.604;13.438;2023-10-08T16:18:23;1.60;;;1.00;;
13090;SDS011;6611;52.604;13.438;2023-10-08T16:23:24;1.63;;;1.03;;
13090;SDS011;6611;52.604;13.438;2023-10-08T16:28:29;2.20;;;0.90;;
13090;SDS011;6611;52.604;13.438;2023-10-08T16:33:31;2.20;;;1.20;;
13090;SDS011;6611;52.604;13.438;2023-10-08T16:38:33;2.23;;;1.00;;
13090;SDS011;6611;52.604;13.438;2023-10-08T16:43:37;1.60;;;1.40;;
13090;SDS011;6611;52.604;13.438;2023-10-08T16:48:38;2.93;;;1.10;;
13090;SDS011;6611;52.604;13.438;2023-10-08T16:53:44;2.10;;;1.43;;
13090;SDS011;6611;52.604;13.438;2023-10-08T16:58:47;2.60;;;1.50;;
13090;SDS011;6611;52.604;13.438;2023-10-08T17:03:49;2.17;;;1.50;;
13090;SDS011;6611;52.604;13.438;2023-10-08T17:08:51;3.13;;;2.03;;
13090;SDS011;6611;52.604;13.438;2023-10-08T17:13:54;7.37;;;4.77;;
13090;SDS011;6611;52.604;13.438;2023-10-08T17:18:55;11.83;;;7.20;;
13090;SDS011;6611;52.604;13.438;2023-10-08T17:23:58;10.53;;;7.53;;
13090;SDS011;6611;52.604;13.438;2023-10-08T17:29:01;11.57;;;7.90;;
13090;SDS011;6611;52.604;13.438;2023-10-08T17:34:03;11.27;;;8.17;;
13090;SDS011;6611;52.604;13.438;2023-10-08T17:39:05;11.67;;;7.57;;
13090;SDS011;6611;52.604;13.438;2023-10-08T17:44:17;10.40;;;6.97;;
13090;SDS011;6611;52.604;13.438;2023-10-08T17:49:19;9.23;;;7.50;;
13090;SDS011;6611;52.604;13.438;2023-10-08T17:54:21;10.80;;;7.37;;
13090;SDS011;6611;52.604;13.438;2023-10-08T17:59:24;9.53;;;7.20;;
13090;SDS011;6611;52.604;13.438;2023-10-08T18:04:27;10.33;;;7.20;;
13090;SDS011;6611;52.604;13.438;2023-10-08T18:09:28;11.50;;;7.87;;
13090;SDS011;6611;52.604;13.438;2023-10-08T18:14:31;11.20;;;7.97;;
13090;SDS011;6611;52.604;13.438;2023-10-08T18:19:33;10.33;;;7.00;;
13090;SDS011;6611;52.604;13.438;2023-10-08T18:24:36;8.97;;;6.70;;
13090;SDS011;6611;52.604;13.438;2023-10-08T18:29:39;8.90;;;6.17;;
13090;SDS011;6611;52.604;13.438;2023-10-08T18:34:42;8.63;;;6.10;;
13090;SDS011;6611;52.604;13.438;2023-10-08T18:39:44;9.37;;;6.73;;
13090;SDS011;6611;52.604;13.438;2023-10-08T18:44:51;8.40;;;6.30;;
13090;SDS011;6611;52.604;13.438;2023-10-08T18:49:53;9.47;;;7.40;;
13090;SDS011;6611;52.604;13.438;2023-10-08T18:54:55;7.93;;;5.93;;
13090;SDS011;6611;52.604;13.438;2023-10-08T18:59:58;7.37;;;5.77;;
13090;SDS011;6611;52.604;13.438;2023-10-08T19:05:00;7.77;;;6.00;;
13090;SDS011;6611;52.604;13.438;2023-10-08T19:10:06;8.80;;;6.07;;
13090;SDS011;6611;52.604;13.438;2023-10-08T19:15:11;8.50;;;6.63;;
13090;SDS011;6611;52.604;13.438;2023-10-08T19:20:14;8.80;;;6.43;;
13090;SDS011;6611;52.604;13.438;2023-10-08T19:25:16;10.27;;;7.30;;
13090;SDS011;6611;52.604;13.438;2023-10-08T19:30:19;9.77;;;6.80;;
13090;SDS011;6611;52.604;13.438;2023-10-08T19:35:21;7.20;;;6.17;;
13090;SDS011;6611;52.604;13.438;2023-10-08T19:40:24;9.23;;;6.60;;
13090;SDS011;6611;52.604;13.438;2023-10-08T19:45:27;7.07;;;5.67;;
13090;SDS011;6611;52.604;13.438;2023-10-08T19:50:37;6.90;;;5.20;;
13090;SDS011;6611;52.604;13.438;2023-10-08T19:55:40;7.27;;;5.17;;
13090;SDS011;6611;52.604;13.438;2023-10-08T20:00:46;5.60;;;4.90;;
13090;SDS011;6611;52.604;13.438;2023-10-08T20:05:50;5.70;;;4.37;;
13090;SDS011;6611;52.604;13.438;2023-10-08T20:10:52;7.63;;;5.37;;
13090;SDS011;6611;52.604;13.438;2023-10-08T20:15:55;10.37;;;7.10;;
13090;SDS011;6611;52.604;13.438;2023-10-08T20:20:56;9.53;;;6.83;;
13090;SDS011;6611;52.604;13.438;2023-10-08T20:25:58;7.03;;;5.07;;
13090;SDS011;6611;52.604;13.438;2023-10-08T20:31:01;6.17;;;4.63;;
13090;SDS011;6611;52.604;13.438;2023-10-08T20:36:03;5.87;;;4.30;;
13090;SDS011;6611;52.604;13.438;2023-10-08T20:41:12;8.27;;;5.67;;
13090;SDS011;6611;52.604;13.438;2023-10-08T20:46:17;6.70;;;5.50;;
13090;SDS011;6611;52.604;13.438;2023-10-08T20:51:21;5.90;;;4.13;;
13090;SDS011;6611;52.604;13.438;2023-10-08T20:56:24;5.10;;;3.50;;
13090;SDS011;6611;52.604;13.438;2023-10-08T21:01:30;4.00;;;3.50;;
13090;SDS011;6611;52.604;13.438;2023-10-08T21:06:33;5.70;;;4.00;;
13090;SDS011;6611;52.604;13.438;2023-10-08T21:11:35;6.57;;;4.07;;
13090;SDS011;6611;52.604;13.438;2023-10-08T21:16:38;8.03;;;5.47;;
13090;SDS011;6611;52.604;13.438;2023-10-08T21:21:40;7.37;;;5.40;;
13090;SDS011;6611;52.604;13.438;2023-10-08T21:26:41;11.07;;;7.00;;
13090;SDS011;6611;52.604;13.438;2023-10-08T21:31:44;8.77;;;4.83;;
13090;SDS011;6611;52.604;13.438;2023-10-08T21:36:47;5.87;;;4.20;;
13090;SDS011;6611;52.604;13.438;2023-10-08T21:41:48;4.50;;;3.03;;
13090;SDS011;6611;52.604;13.438;2023-10-08T21:46:52;3.50;;;2.90;;
13090;SDS011;6611;52.604;13.438;2023-10-08T21:51:54;7.20;;;3.00;;
13090;SDS011;6611;52.604;13.438;2023-10-08T21:56:56;3.10;;;2.63;;
13090;SDS011;6611;52.604;13.438;2023-10-08T22:01:59;4.27;;;3.10;;
13090;SDS011;6611;52.604;13.438;2023-10-08T22:07:05;5.13;;;3.33;;
13090;SDS011;6611;52.604;13.438;2023-10-08T22:12:08;4.60;;;3.70;;
13090;SDS011;6611;52.604;13.438;2023-10-08T22:17:13;5.27;;;3.90;;
13090;SDS011;6611;52.604;13.438;2023-10-08T22:22:14;4.47;;;2.97;;
13090;SDS011;6611;52.604;13.438;2023-10-08T22:27:17;5.10;;;3.37;;
13090;SDS011;6611;52.604;13.438;2023-10-08T22:32:29;4.20;;;2.73;;
13090;SDS011;6611;52.604;13.438;2023-10-08T22:37:31;3.27;;;2.43;;
13090;SDS011;6611;52.604;13.438;2023-10-08T22:42:53;2.97;;;2.50;;
13090;SDS011;6611;52.604;13.438;2023-10-08T22:47:58;3.30;;;2.60;;
13090;SDS011;6611;52.604;13.438;2023-10-08T22:53:05;2.37;;;1.93;;
13090;SDS011;6611;52.604;13.438;2023-10-08T22:58:08;2.13;;;1.73;;
13090;SDS011;6611;52.604;13.438;2023-10-08T23:03:11;2.00;;;1.80;;
13090;SDS011;6611;52.604;13.438;2023-10-08T23:08:14;4.37;;;2.10;;
13090;SDS011;6611;52.604;13.438;2023-10-08T23:13:17;3.43;;;1.87;;
13090;SDS011;6611;52.604;13.438;2023-10-08T23:18:21;2.57;;;1.67;;
13090;SDS011;6611;52.604;13.438;2023-10-08T23:23:24;2.67;;;1.53;;
13090;SDS011;6611;52.604;13.438;2023-10-08T23:28:25;3.27;;;1.50;;
13090;SDS011;6611;52.604;13.438;2023-10-08T23:33:29;3.60;;;1.73;;
13090;SDS011;6611;52.604;13.438;2023-10-08T23:38:34;4.23;;;1.73;;
13090;SDS011;6611;52.604;13.438;2023-10-08T23:43:38;2.10;;;1.67;;
13090;SDS011;6611;52.604;13.438;2023-10-08T23:48:52;2.60;;;1.83;;
13090;SDS011;6611;52.604;13.438;2023-10-08T23:53:54;4.37;;;1.90;;
13090;SDS011;6611;52.604;13.438;2023-10-08T23:59:01;2.73;;;1.83;;
